Terminal Aerodrome Forecast
Issued by NWS Nashville, TN

Home | Current Version | Previous Version | Text Only | Print | Product List | Glossary On
Versions: 1 2 3 4 5 6 7 8 9 10 11 12 13 14 15 16 17 18 19 20 21 22 23 24 25 26 27 28
201
FTUS44 KOHX 211834 AAA
TAFBNA
TAF AMD
KBNA 211834Z 2119/2218 16015G25KT P6SM SCT040 BKN100
     FM212000 16010G18KT P6SM SCT040 OVC100
     FM212300 13005KT P6SM VCSH OVC025
     FM220800 09003KT 5SM BR OVC015=

USA.gov is the U.S. government's official web portal to all federal, state and local government web resources and services.